Time;durP1;ratioP1;P1;durP2;ratioP2;P2;SDS_P1;SDS_P2;PMS_P1;PMS_P2;Temp;Humidity;BMP_temperature;BMP_pressure;BME280_temperature;BME280_humidity;BME280_pressure;Samples;Min_cycle;Max_cycle;Signal;HPM_P1;HPM_P2
2022/04/11 00:01:55;;;;;;;3.47;1.30;;;4.50;99.90;;;;;;4984782;28;20129;-63
2022/04/11 00:04:24;;;;;;;3.47;0.80;;;4.40;99.90;;;;;;4981081;28;20054;-64
2022/04/11 00:06:51;;;;;;;4.53;0.80;;;4.40;99.90;;;;;;4978423;28;20042;-64
2022/04/11 00:09:18;;;;;;;1.85;0.80;;;4.30;99.90;;;;;;4978128;28;20446;-64
2022/04/11 00:11:46;;;;;;;2.60;1.27;;;4.30;99.90;;;;;;4972258;28;20093;-63
2022/04/11 00:14:14;;;;;;;3.78;1.25;;;4.30;99.90;;;;;;4978216;28;20062;-64
2022/04/11 00:16:41;;;;;;;3.70;1.05;;;4.30;99.90;;;;;;4985342;28;20140;-64
2022/04/11 00:19:11;;;;;;;1.83;0.95;;;4.20;99.90;;;;;;4960068;28;20046;-65
2022/04/11 00:21:38;;;;;;;2.55;1.48;;;4.20;99.90;;;;;;4978217;28;20432;-67
2022/04/11 00:24:05;;;;;;;3.72;1.75;;;4.20;99.90;;;;;;4984847;28;20042;-64
2022/04/11 00:26:32;;;;;;;2.40;0.93;;;4.20;99.90;;;;;;4975531;28;20077;-64
2022/04/11 00:28:59;;;;;;;5.28;1.13;;;4.10;99.90;;;;;;4978614;28;20047;-64
2022/04/11 00:31:26;;;;;;;4.07;1.30;;;4.10;99.90;;;;;;4978555;28;20042;-65
2022/04/11 00:33:53;;;;;;;3.50;0.98;;;4.10;99.90;;;;;;5009235;28;20393;-64
2022/04/11 00:36:20;;;;;;;3.05;0.82;;;4.10;99.90;;;;;;4985354;28;20077;-63
2022/04/11 00:38:47;;;;;;;6.60;1.42;;;4.10;99.90;;;;;;4986549;28;20089;-62
2022/04/11 00:41:14;;;;;;;5.03;2.33;;;4.10;99.90;;;;;;4974660;28;20129;-64
2022/04/11 00:43:41;;;;;;;9.63;1.48;;;4.00;99.90;;;;;;4990607;28;20122;-64
2022/04/11 00:46:09;;;;;;;1.58;1.30;;;4.00;99.90;;;;;;4974435;28;20451;-64
2022/04/11 00:48:37;;;;;;;2.35;0.88;;;3.90;99.90;;;;;;4975389;28;20377;-64
2022/04/11 00:51:10;;;;;;;5.03;1.10;;;3.90;99.90;;;;;;4984622;28;20047;-64
2022/04/11 00:53:40;;;;;;;6.95;1.35;;;3.80;99.90;;;;;;4982508;28;20081;-67
2022/04/11 00:56:11;;;;;;;7.57;1.00;;;3.80;99.90;;;;;;4974344;28;20054;-64
2022/04/11 00:58:38;;;;;;;9.07;1.50;;;3.80;99.90;;;;;;4977217;28;20504;-67
2022/04/11 01:01:07;;;;;;;6.32;1.17;;;3.70;99.90;;;;;;4974262;28;20062;-64
2022/04/11 01:03:34;;;;;;;7.40;1.83;;;3.70;99.90;;;;;;4978838;28;20046;-64
2022/04/11 01:06:02;;;;;;;3.17;0.80;;;3.70;99.90;;;;;;4977842;28;20074;-64
2022/04/11 01:08:29;;;;;;;3.83;0.90;;;3.70;99.90;;;;;;4981184;28;20065;-66
2022/04/11 01:10:56;;;;;;;9.75;2.08;;;3.70;99.90;;;;;;4975895;28;20696;-63
2022/04/11 01:13:23;;;;;;;3.65;0.93;;;3.60;99.90;;;;;;4979159;28;20174;-64
2022/04/11 01:16:05;;;;;;;2.20;1.10;;;3.60;99.90;;;;;;4977912;28;20057;-66
2022/04/11 01:18:37;;;;;;;2.30;0.98;;;3.60;99.90;;;;;;5009539;28;20384;-63
2022/04/11 01:21:07;;;;;;;2.20;0.95;;;3.50;99.90;;;;;;4967998;28;20043;-65
2022/04/11 01:23:34;;;;;;;6.75;1.38;;;3.50;99.90;;;;;;5014114;28;20050;-64
2022/04/11 01:26:03;;;;;;;1.88;0.70;;;3.50;99.90;;;;;;4995545;28;20120;-64
2022/04/11 01:28:31;;;;;;;5.72;1.13;;;3.50;99.90;;;;;;4979950;28;20042;-64
2022/04/11 01:30:58;;;;;;;4.15;0.60;;;3.50;99.90;;;;;;4976414;28;20113;-66
2022/04/11 01:33:28;;;;;;;2.38;0.70;;;3.50;99.90;;;;;;4971309;28;20070;-64
2022/04/11 01:36:00;;;;;;;3.75;0.82;;;3.50;99.90;;;;;;4975982;28;20535;-64
2022/04/11 01:38:27;;;;;;;7.13;1.17;;;3.50;99.90;;;;;;5008247;28;20577;-63
2022/04/11 01:40:56;;;;;;;8.90;1.35;;;3.40;99.90;;;;;;4967810;28;20058;-66
2022/04/11 01:43:25;;;;;;;3.58;0.95;;;3.40;99.90;;;;;;4983608;28;20139;-65
2022/04/11 01:45:53;;;;;;;5.70;1.25;;;3.40;99.90;;;;;;4983033;28;20046;-64
2022/04/11 01:48:40;;;;;;;3.85;0.68;;;3.40;99.90;;;;;;5002720;28;20042;-66
2022/04/11 01:51:07;;;;;;;1.85;1.00;;;3.40;99.90;;;;;;4975064;28;20057;-64
2022/04/11 01:53:34;;;;;;;4.93;1.65;;;3.40;99.90;;;;;;4976710;28;20358;-66
2022/04/11 01:56:02;;;;;;;2.53;0.95;;;3.30;99.90;;;;;;4972186;28;20062;-63
2022/04/11 01:58:30;;;;;;;5.05;0.75;;;3.30;99.90;;;;;;5007489;28;20497;-65
2022/04/11 02:00:58;;;;;;;3.00;1.00;;;3.30;99.90;;;;;;4968886;28;20177;-67
2022/04/11 02:03:30;;;;;;;3.17;0.80;;;3.30;99.90;;;;;;5000670;28;20097;-64
2022/04/11 02:05:57;;;;;;;1.63;1.00;;;3.30;99.90;;;;;;4975231;28;20108;-63
2022/04/11 02:08:24;;;;;;;3.10;1.50;;;3.40;99.90;;;;;;4976570;28;20426;-64
2022/04/11 02:10:57;;;;;;;4.88;2.33;;;3.40;99.90;;;;;;4976410;28;20041;-63
2022/04/11 02:13:25;;;;;;;4.25;1.30;;;3.40;99.90;;;;;;4971839;28;20063;-64
2022/04/11 02:15:52;;;;;;;1.40;0.90;;;3.40;99.90;;;;;;4989432;28;20400;-64
2022/04/11 02:18:19;;;;;;;5.53;1.30;;;3.40;99.90;;;;;;4973627;28;20552;-66
2022/04/11 02:20:46;;;;;;;3.83;2.55;;;3.40;99.90;;;;;;4971886;28;20061;-67
2022/04/11 02:23:13;;;;;;;3.33;1.35;;;3.40;99.90;;;;;;4976972;28;20135;-65
2022/04/11 02:25:40;;;;;;;8.48;1.20;;;3.40;99.90;;;;;;4968297;28;20061;-65
2022/04/11 02:28:08;;;;;;;5.00;1.10;;;3.30;99.90;;;;;;4979696;28;20050;-65
2022/04/11 02:30:36;;;;;;;5.35;1.73;;;3.30;99.90;;;;;;4988056;28;20046;-64
2022/04/11 02:33:03;;;;;;;4.20;1.55;;;3.30;99.90;;;;;;4981956;28;20461;-64
2022/04/11 02:35:30;;;;;;;4.20;1.33;;;3.30;99.90;;;;;;4969617;28;20430;-63
2022/04/11 02:37:57;;;;;;;8.55;1.88;;;3.30;99.90;;;;;;5005804;28;20046;-63
2022/04/11 02:40:24;;;;;;;12.40;1.50;;;3.30;99.90;;;;;;4974549;28;20523;-64
2022/04/11 02:43:12;;;;;;;4.30;1.15;;;3.20;99.90;;;;;;4974496;28;20208;-67
2022/04/11 02:45:46;;;;;;;4.22;2.22;;;3.20;99.90;;;;;;4980729;28;20101;-64
2022/04/11 02:48:17;;;;;;;8.90;1.52;;;3.20;99.90;;;;;;4976965;28;20186;-64
2022/04/11 02:50:51;;;;;;;4.15;1.23;;;3.10;99.90;;;;;;4967873;28;20057;-64
2022/04/11 02:53:23;;;;;;;2.63;1.23;;;3.10;99.90;;;;;;5006791;28;20082;-64
2022/04/11 02:55:50;;;;;;;2.67;1.02;;;3.10;99.90;;;;;;4966504;28;20047;-65
2022/04/11 02:58:17;;;;;;;4.20;0.73;;;3.10;99.90;;;;;;4966056;28;20050;-64
2022/04/11 03:00:45;;;;;;;6.25;1.63;;;3.10;99.90;;;;;;4968070;28;20096;-65
2022/04/11 03:03:12;;;;;;;4.55;2.00;;;3.00;99.90;;;;;;5002582;28;20062;-63
2022/04/11 03:05:41;;;;;;;5.67;1.03;;;3.00;99.90;;;;;;4968531;28;20504;-64
2022/04/11 03:08:09;;;;;;;6.30;1.33;;;3.00;99.90;;;;;;4968716;28;20765;-67
2022/04/11 03:10:38;;;;;;;3.30;1.17;;;2.90;99.90;;;;;;4973950;28;20043;-64
2022/04/11 03:13:07;;;;;;;4.70;1.85;;;2.90;99.90;;;;;;5003577;28;20468;-64
2022/04/11 03:15:35;;;;;;;6.93;2.13;;;2.90;99.90;;;;;;4976075;28;20101;-64
2022/04/11 03:18:02;;;;;;;7.20;1.83;;;2.80;99.90;;;;;;4973459;28;20480;-64
2022/04/11 03:20:31;;;;;;;10.02;1.52;;;2.80;99.90;;;;;;4976506;28;20078;-63
2022/04/11 03:22:59;;;;;;;2.92;1.05;;;2.70;99.90;;;;;;4975918;28;20830;-65
2022/04/11 03:25:30;;;;;;;7.97;1.27;;;2.60;99.90;;;;;;4979203;28;20051;-63
2022/04/11 03:27:57;;;;;;;2.50;1.40;;;2.60;99.90;;;;;;4975619;28;20057;-63
2022/04/11 03:30:29;;;;;;;2.40;1.10;;;2.60;99.90;;;;;;4980236;28;20138;-65
2022/04/11 03:32:56;;;;;;;7.93;2.35;;;2.50;99.90;;;;;;4976186;28;20085;-64
2022/04/11 03:35:24;;;;;;;4.20;1.52;;;2.50;99.90;;;;;;4986097;28;20050;-64
2022/04/11 03:37:52;;;;;;;7.18;1.80;;;2.60;99.90;;;;;;4979662;28;20055;-64
2022/04/11 03:40:22;;;;;;;5.07;1.73;;;2.60;99.90;;;;;;4980510;28;20039;-63
2022/04/11 03:42:50;;;;;;;7.20;1.48;;;2.60;99.90;;;;;;4978917;28;20469;-64
2022/04/11 03:45:17;;;;;;;8.25;1.45;;;2.60;99.90;;;;;;4977261;28;20771;-63
2022/04/11 03:47:46;;;;;;;7.38;1.60;;;2.60;99.90;;;;;;4974608;28;20046;-64
2022/04/11 03:50:16;;;;;;;6.03;0.88;;;2.50;99.90;;;;;;4979915;28;20456;-67
2022/04/11 03:52:44;;;;;;;12.98;3.67;;;2.50;99.90;;;;;;4981161;28;20076;-63
2022/04/11 03:55:11;;;;;;;12.35;1.77;;;2.50;99.90;;;;;;4977254;28;20126;-64
2022/04/11 03:57:43;;;;;;;7.75;2.15;;;2.50;99.90;;;;;;4975513;28;20132;-64
2022/04/11 04:00:10;;;;;;;11.27;1.45;;;2.50;99.90;;;;;;4979090;28;20116;-64
2022/04/11 04:02:44;;;;;;;8.18;2.60;;;2.50;99.90;;;;;;4978264;28;20081;-64
2022/04/11 04:05:13;;;;;;;15.48;2.22;;;2.50;99.90;;;;;;4971713;28;20050;-64
2022/04/11 04:07:41;;;;;;;11.73;2.97;;;2.50;99.90;;;;;;4978732;28;20046;-63
2022/04/11 04:10:08;;;;;;;17.90;2.47;;;2.60;99.90;;;;;;4981656;28;20106;-66
2022/04/11 04:12:37;;;;;;;9.02;1.60;;;2.60;99.90;;;;;;4981422;28;20050;-65
2022/04/11 04:15:12;;;;;;;7.55;1.35;;;2.70;99.90;;;;;;4995686;28;20099;-64
2022/04/11 04:17:45;;;;;;;7.40;2.00;;;2.70;99.90;;;;;;4972996;28;20076;-64
2022/04/11 04:20:11;;;;;;;19.30;3.80;;;2.70;99.90;;;;;;5012038;28;20097;-63
2022/04/11 04:22:39;;;;;;;22.95;3.63;;;2.70;99.90;;;;;;4976748;28;20043;-64
2022/04/11 04:25:08;;;;;;;12.95;2.40;;;2.70;99.90;;;;;;4981584;28;20104;-64
2022/04/11 04:27:35;;;;;;;7.15;1.73;;;2.70;99.90;;;;;;4969230;28;20389;-64
2022/04/11 04:30:05;;;;;;;6.45;2.45;;;2.70;99.90;;;;;;4991336;28;20051;-63
2022/04/11 04:32:33;;;;;;;10.73;1.95;;;2.70;99.90;;;;;;4979993;28;20141;-64
2022/04/11 04:35:01;;;;;;;4.55;1.27;;;2.70;99.90;;;;;;4974287;28;20109;-64
2022/04/11 04:37:28;;;;;;;8.48;2.20;;;2.70;99.90;;;;;;4983512;28;20042;-65
2022/04/11 04:39:56;;;;;;;12.48;1.55;;;2.60;99.90;;;;;;4981639;28;20054;-68
2022/04/11 04:42:26;;;;;;;4.13;1.88;;;2.60;99.90;;;;;;4967817;28;20046;-65
2022/04/11 04:45:05;;;;;;;4.88;1.75;;;2.60;99.90;;;;;;4977505;28;20042;-64
2022/04/11 04:47:42;;;;;;;5.53;1.65;;;2.70;99.90;;;;;;4970668;28;20047;-64
2022/04/11 04:50:09;;;;;;;4.70;1.17;;;2.70;99.90;;;;;;4972146;28;20046;-67
2022/04/11 04:52:38;;;;;;;7.53;1.58;;;2.80;99.90;;;;;;4978764;28;20684;-64
2022/04/11 04:55:05;;;;;;;6.00;1.80;;;2.80;99.90;;;;;;4995922;28;20053;-64
2022/04/11 04:57:32;;;;;;;7.97;1.98;;;2.80;99.90;;;;;;4984309;28;20061;-67
2022/04/11 05:00:01;;;;;;;12.20;2.92;;;2.90;99.90;;;;;;4987892;28;20385;-63
2022/04/11 05:02:37;;;;;;;9.52;2.83;;;2.90;99.90;;;;;;5007486;28;20061;-63
2022/04/11 05:05:10;;;;;;;12.20;2.63;;;2.90;99.90;;;;;;5002232;28;20054;-64
2022/04/11 05:07:37;;;;;;;12.73;1.85;;;3.00;99.90;;;;;;5008996;28;20109;-63
2022/04/11 05:10:11;;;;;;;5.50;2.42;;;3.00;99.90;;;;;;4976021;28;20046;-65
2022/04/11 05:12:45;;;;;;;9.35;4.53;;;3.00;99.90;;;;;;4977356;28;20047;-65
2022/04/11 05:15:14;;;;;;;9.00;2.47;;;3.00;99.90;;;;;;4980824;28;20066;-63
2022/04/11 05:17:45;;;;;;;9.48;2.25;;;3.10;99.90;;;;;;4977558;28;20070;-64
2022/04/11 05:20:14;;;;;;;10.30;2.08;;;3.10;99.90;;;;;;4979047;28;20038;-63
2022/04/11 05:22:41;;;;;;;8.80;1.98;;;3.10;99.90;;;;;;4976874;28;20108;-64
2022/04/11 05:25:08;;;;;;;6.65;1.92;;;3.20;99.90;;;;;;4978670;28;20791;-64
2022/04/11 05:27:36;;;;;;;14.15;1.92;;;3.20;99.90;;;;;;4979526;28;20186;-66
2022/04/11 05:30:05;;;;;;;12.38;1.92;;;3.20;99.90;;;;;;5005878;28;20136;-63
2022/04/11 05:32:34;;;;;;;5.00;1.98;;;3.20;99.90;;;;;;5003500;28;20109;-66
2022/04/11 05:35:02;;;;;;;11.07;2.42;;;3.30;99.90;;;;;;4973909;28;20638;-63
2022/04/11 05:37:29;;;;;;;11.82;2.40;;;3.30;99.90;;;;;;4992599;28;20073;-67
2022/04/11 05:39:57;;;;;;;5.05;1.33;;;3.30;99.90;;;;;;4972715;28;20062;-64
2022/04/11 05:42:26;;;;;;;8.38;2.17;;;3.40;99.90;;;;;;4976892;28;20425;-63
2022/04/11 05:44:52;;;;;;;7.97;1.98;;;3.40;99.90;;;;;;4977194;28;20441;-64
2022/04/11 05:47:19;;;;;;;14.93;3.08;;;3.40;99.90;;;;;;4984513;28;20402;-65
2022/04/11 05:49:52;;;;;;;6.60;2.28;;;3.50;99.90;;;;;;4968209;28;20138;-64
2022/04/11 05:52:21;;;;;;;11.25;2.47;;;3.50;99.90;;;;;;4993909;28;20053;-65
2022/04/11 05:54:49;;;;;;;8.63;1.65;;;3.50;99.90;;;;;;4978972;28;20058;-65
2022/04/11 05:57:16;;;;;;;10.57;3.10;;;3.60;99.90;;;;;;4967615;28;20236;-64
2022/04/11 05:59:43;;;;;;;12.50;3.03;;;3.60;99.90;;;;;;4988774;28;20051;-64
2022/04/11 06:02:11;;;;;;;12.32;2.03;;;3.60;99.90;;;;;;4969225;28;20121;-64
2022/04/11 06:04:40;;;;;;;4.78;1.42;;;3.60;99.90;;;;;;4974550;28;20076;-67
2022/04/11 06:07:08;;;;;;;6.07;1.83;;;3.60;99.90;;;;;;5014707;28;20137;-65
2022/04/11 06:09:36;;;;;;;13.48;2.65;;;3.60;99.90;;;;;;5013813;28;20116;-64
2022/04/11 06:12:04;;;;;;;11.90;2.10;;;3.60;99.90;;;;;;4982360;28;20469;-62
2022/04/11 06:14:33;;;;;;;7.20;3.37;;;3.70;99.90;;;;;;4968730;28;20046;-63
2022/04/11 06:17:00;;;;;;;7.95;2.60;;;3.70;99.90;;;;;;4966648;28;20320;-64
2022/04/11 06:19:27;;;;;;;9.07;2.58;;;3.70;99.90;;;;;;4978569;28;20136;-64
2022/04/11 06:21:54;;;;;;;7.15;2.58;;;3.70;99.90;;;;;;4972052;28;20057;-63
2022/04/11 06:24:21;;;;;;;8.70;2.72;;;3.80;99.90;;;;;;4979556;28;20444;-64
2022/04/11 06:26:48;;;;;;;7.40;2.03;;;3.80;99.90;;;;;;4971281;28;20058;-65
2022/04/11 06:29:16;;;;;;;5.97;2.38;;;3.80;99.90;;;;;;5005274;28;20040;-63
2022/04/11 06:31:43;;;;;;;10.07;3.40;;;3.80;99.90;;;;;;4982504;28;20060;-64
2022/04/11 06:34:22;;;;;;;9.07;2.85;;;3.80;99.90;;;;;;4979147;28;20424;-63
2022/04/11 06:36:49;;;;;;;9.68;1.50;;;3.90;99.90;;;;;;4980766;28;20096;-63
2022/04/11 06:39:16;;;;;;;13.38;2.80;;;3.90;99.90;;;;;;4994036;28;20046;-64
2022/04/11 06:41:48;;;;;;;8.98;2.30;;;3.90;99.90;;;;;;4969319;28;20058;-64
2022/04/11 06:44:15;;;;;;;15.32;3.47;;;3.90;99.90;;;;;;4978547;28;20061;-63
2022/04/11 06:46:49;;;;;;;8.30;2.10;;;3.90;99.90;;;;;;4967682;28;20489;-65
2022/04/11 06:49:16;;;;;;;16.27;2.65;;;3.90;99.90;;;;;;4976839;28;20066;-64
2022/04/11 06:51:43;;;;;;;8.00;2.75;;;4.00;99.90;;;;;;4981760;28;20499;-64
2022/04/11 06:54:10;;;;;;;10.25;2.33;;;4.00;99.90;;;;;;4981702;28;20207;-63
2022/04/11 06:56:37;;;;;;;15.13;4.32;;;4.00;99.90;;;;;;4979962;28;20078;-63
2022/04/11 06:59:04;;;;;;;12.95;2.72;;;4.00;99.90;;;;;;4978799;28;20744;-62
2022/04/11 07:01:31;;;;;;;6.38;1.65;;;4.00;99.90;;;;;;4975998;28;20077;-66
2022/04/11 07:03:58;;;;;;;7.57;2.17;;;4.00;99.90;;;;;;4975386;28;20848;-64
2022/04/11 07:06:25;;;;;;;10.88;2.17;;;4.10;99.90;;;;;;4977068;28;20139;-64
2022/04/11 07:08:51;;;;;;;6.43;2.38;;;4.10;99.90;;;;;;4975921;28;20086;-63
2022/04/11 07:11:18;;;;;;;6.25;2.22;;;4.20;99.90;;;;;;4981935;28;20057;-64
2022/04/11 07:13:45;;;;;;;6.28;2.17;;;4.20;99.90;;;;;;4973137;28;20130;-64
2022/04/11 07:16:12;;;;;;;6.85;2.05;;;4.20;99.90;;;;;;4974384;28;20070;-64
2022/04/11 07:18:39;;;;;;;6.13;2.53;;;4.30;99.90;;;;;;4974269;28;20050;-66
2022/04/11 07:21:06;;;;;;;8.88;2.08;;;4.20;99.90;;;;;;4985984;28;20521;-64
2022/04/11 07:23:33;;;;;;;4.15;1.60;;;4.30;99.90;;;;;;4988825;28;20452;-64
2022/04/11 07:26:00;;;;;;;9.43;2.78;;;4.30;99.90;;;;;;4970703;28;20486;-64
2022/04/11 07:28:27;;;;;;;8.25;2.65;;;4.30;99.90;;;;;;4976505;28;20042;-65
2022/04/11 07:30:54;;;;;;;8.82;1.85;;;4.30;99.90;;;;;;4970693;28;20101;-64
2022/04/11 07:33:21;;;;;;;8.80;1.95;;;4.30;99.90;;;;;;4974838;28;20042;-66
2022/04/11 07:35:48;;;;;;;10.07;2.17;;;4.40;99.90;;;;;;4975830;28;20173;-63
2022/04/11 07:38:14;;;;;;;14.07;3.30;;;4.40;99.90;;;;;;4982985;28;20121;-64
2022/04/11 07:40:47;;;;;;;7.60;1.88;;;4.40;99.90;;;;;;4969315;28;20626;-62
2022/04/11 07:43:14;;;;;;;5.63;2.17;;;4.50;99.90;;;;;;4979373;28;20161;-64
2022/04/11 07:45:42;;;;;;;5.25;2.03;;;4.50;99.90;;;;;;4970744;28;20050;-66
2022/04/11 07:48:09;;;;;;;15.25;2.80;;;4.50;99.90;;;;;;4975554;28;20046;-64
2022/04/11 07:50:36;;;;;;;11.95;2.83;;;4.50;99.90;;;;;;4976223;28;20396;-66
2022/04/11 07:53:03;;;;;;;8.05;2.70;;;4.60;99.90;;;;;;4982317;28;20164;-66
2022/04/11 07:55:31;;;;;;;12.95;3.00;;;4.60;99.90;;;;;;4989079;28;20388;-64
2022/04/11 07:57:58;;;;;;;12.80;2.42;;;4.70;99.90;;;;;;4982481;28;20054;-63
2022/04/11 08:00:25;;;;;;;4.80;2.90;;;4.70;99.90;;;;;;4997473;28;20041;-67
2022/04/11 08:02:57;;;;;;;10.77;2.50;;;4.70;99.90;;;;;;4982249;28;20100;-64
2022/04/11 08:05:25;;;;;;;11.63;3.85;;;4.70;99.90;;;;;;4991198;28;20045;-64
2022/04/11 08:07:52;;;;;;;14.68;2.92;;;4.80;99.90;;;;;;4987232;28;20129;-64
2022/04/11 08:10:21;;;;;;;12.10;2.03;;;4.90;99.90;;;;;;4976347;28;20090;-63
2022/04/11 08:12:57;;;;;;;13.73;2.50;;;4.90;99.90;;;;;;4980300;28;20465;-63
2022/04/11 08:15:26;;;;;;;7.30;2.00;;;5.00;99.90;;;;;;4980856;28;20047;-63
2022/04/11 08:17:56;;;;;;;11.43;2.22;;;5.00;99.90;;;;;;4981110;28;20400;-63
2022/04/11 08:20:24;;;;;;;21.55;3.00;;;5.00;99.90;;;;;;4982936;28;20074;-67
2022/04/11 08:22:51;;;;;;;14.63;2.72;;;5.00;99.90;;;;;;4996734;28;20451;-64
2022/04/11 08:25:18;;;;;;;8.80;2.22;;;5.00;99.90;;;;;;4987006;28;20053;-65
2022/04/11 08:27:46;;;;;;;13.02;2.65;;;5.10;99.90;;;;;;4976080;28;20058;-66
2022/04/11 08:30:13;;;;;;;9.48;2.78;;;5.10;99.90;;;;;;4980921;28;20066;-64
2022/04/11 08:32:48;;;;;;;7.53;2.53;;;5.10;99.90;;;;;;4982766;28;20138;-64
2022/04/11 08:35:18;;;;;;;11.48;2.60;;;5.10;99.90;;;;;;4979035;28;20548;-63
2022/04/11 08:37:46;;;;;;;19.52;3.53;;;5.00;99.90;;;;;;4973411;28;20148;-64
2022/04/11 08:40:15;;;;;;;9.65;2.67;;;5.00;99.90;;;;;;4974437;28;20146;-65
2022/04/11 08:42:44;;;;;;;14.73;2.60;;;5.00;99.90;;;;;;4972639;28;20070;-64
2022/04/11 08:45:16;;;;;;;10.90;2.40;;;5.00;99.90;;;;;;4970347;28;20057;-63
2022/04/11 08:47:44;;;;;;;10.32;2.50;;;5.00;99.90;;;;;;4970321;28;20157;-66
2022/04/11 08:50:12;;;;;;;5.22;2.30;;;4.90;99.90;;;;;;4974390;28;20217;-64
2022/04/11 08:52:39;;;;;;;6.82;1.83;;;4.90;99.90;;;;;;4972841;28;20052;-65
2022/04/11 08:55:07;;;;;;;12.20;3.17;;;4.80;99.90;;;;;;4976823;28;20398;-67
2022/04/11 08:57:38;;;;;;;10.98;2.40;;;4.90;99.90;;;;;;4972731;28;20172;-63
2022/04/11 09:00:09;;;;;;;8.68;3.13;;;4.80;99.90;;;;;;4974735;28;20105;-66
2022/04/11 09:02:38;;;;;;;12.05;2.65;;;4.90;99.90;;;;;;4970381;28;20129;-66
2022/04/11 09:05:05;;;;;;;14.38;3.08;;;5.00;99.90;;;;;;4970738;28;20049;-64
2022/04/11 09:07:53;;;;;;;10.98;2.65;;;5.10;99.90;;;;;;4981031;28;20054;-63
2022/04/11 09:10:25;;;;;;;11.98;4.28;;;5.10;99.90;;;;;;4973721;28;20166;-63
2022/04/11 09:12:54;;;;;;;10.65;2.63;;;5.10;99.90;;;;;;4975064;28;20128;-63
2022/04/11 09:15:23;;;;;;;16.23;4.73;;;5.20;99.90;;;;;;4972700;28;20305;-66
2022/04/11 09:17:51;;;;;;;14.32;2.40;;;5.00;99.90;;;;;;4974228;28;20398;-63
2022/04/11 09:20:23;;;;;;;15.35;3.92;;;5.10;99.90;;;;;;4974965;28;20201;-65
2022/04/11 09:22:51;;;;;;;17.10;4.93;;;5.10;99.90;;;;;;4969689;28;20054;-62
2022/04/11 09:25:29;;;;;;;12.25;2.17;;;5.10;99.90;;;;;;4971660;28;20051;-63
2022/04/11 09:28:10;;;;;;;19.25;2.60;;;5.30;99.90;;;;;;4969177;28;20375;-64
2022/04/11 09:30:39;;;;;;;15.50;4.57;;;5.30;99.90;;;;;;4975220;28;20065;-65
2022/04/11 09:33:09;;;;;;;11.27;2.77;;;5.40;99.90;;;;;;4970112;28;20137;-63
2022/04/11 09:35:39;;;;;;;12.52;3.10;;;5.20;99.90;;;;;;4973058;28;20113;-64
2022/04/11 09:38:19;;;;;;;16.80;3.00;;;5.20;99.90;;;;;;4975683;28;20142;-64
2022/04/11 09:40:50;;;;;;;13.60;3.30;;;5.20;99.90;;;;;;4972611;28;20109;-63
2022/04/11 09:43:29;;;;;;;9.18;2.60;;;5.30;99.90;;;;;;4968080;28;20477;-65
2022/04/11 09:45:56;;;;;;;8.50;2.30;;;5.20;99.90;;;;;;4968962;28;20038;-64
2022/04/11 09:48:29;;;;;;;9.52;2.60;;;5.30;99.90;;;;;;4966963;28;20054;-64
2022/04/11 09:50:59;;;;;;;11.27;2.88;;;5.40;99.90;;;;;;4973513;28;20806;-64
2022/04/11 09:53:34;;;;;;;15.77;3.47;;;5.40;99.90;;;;;;4970243;28;20039;-64
2022/04/11 09:56:04;;;;;;;13.20;2.33;;;5.50;99.90;;;;;;4972814;28;20074;-66
2022/04/11 09:58:33;;;;;;;7.03;2.22;;;5.50;99.90;;;;;;4968382;28;20145;-62
2022/04/11 10:01:02;;;;;;;10.35;2.90;;;5.50;99.90;;;;;;4972209;28;20101;-64
2022/04/11 10:03:30;;;;;;;8.40;2.40;;;5.50;99.90;;;;;;4971324;28;20042;-64
2022/04/11 10:06:01;;;;;;;15.35;5.05;;;5.50;99.90;;;;;;4972510;28;20133;-64
2022/04/11 10:08:28;;;;;;;12.63;2.78;;;5.50;99.90;;;;;;4972002;28;20072;-67
2022/04/11 10:10:56;;;;;;;7.25;3.35;;;5.50;99.90;;;;;;4973143;28;20046;-64
2022/04/11 10:13:23;;;;;;;11.30;2.47;;;5.70;99.90;;;;;;4970710;28;20150;-63
2022/04/11 10:15:50;;;;;;;10.98;3.67;;;5.60;99.90;;;;;;4983221;28;20050;-64
2022/04/11 10:18:24;;;;;;;12.90;3.75;;;5.70;99.90;;;;;;4970049;28;20164;-63
2022/04/11 10:21:04;;;;;;;17.25;5.70;;;5.70;99.90;;;;;;4967135;28;20089;-64
2022/04/11 10:23:59;;;;;;;9.55;2.97;;;5.80;99.90;;;;;;4972797;28;20047;-64
2022/04/11 10:26:44;;;;;;;12.65;2.92;;;5.90;99.90;;;;;;4973295;28;20055;-65
2022/04/11 10:29:33;;;;;;;11.25;2.65;;;5.90;99.90;;;;;;4967289;28;20144;-64
2022/04/11 10:32:21;;;;;;;15.13;4.28;;;6.00;99.90;;;;;;4972790;28;20141;-64
2022/04/11 10:34:54;;;;;;;9.40;2.38;;;6.20;99.90;;;;;;4976313;28;20082;-64
2022/04/11 10:37:26;;;;;;;13.35;2.33;;;6.30;99.90;;;;;;4981539;28;20047;-64
2022/04/11 10:40:30;;;;;;;10.27;3.15;;;6.40;99.90;;;;;;4969604;28;20105;-63
2022/04/11 10:43:04;;;;;;;10.35;3.28;;;6.30;99.90;;;;;;4959844;28;20073;-64
2022/04/11 10:45:36;;;;;;;8.88;2.47;;;6.10;99.90;;;;;;4972235;28;20104;-67
2022/04/11 10:48:04;;;;;;;30.30;3.75;;;6.00;99.90;;;;;;4969908;28;20050;-64
2022/04/11 10:50:34;;;;;;;17.27;3.42;;;6.20;99.90;;;;;;4978468;28;20117;-64
2022/04/11 10:53:12;;;;;;;23.05;4.57;;;6.30;99.90;;;;;;4972955;28;20046;-65
2022/04/11 10:56:07;;;;;;;13.18;3.22;;;6.40;99.90;;;;;;4971027;28;20128;-67
2022/04/11 10:58:49;;;;;;;8.40;2.35;;;6.40;99.90;;;;;;4967362;28;20046;-65
2022/04/11 11:01:45;;;;;;;12.68;2.83;;;6.30;99.90;;;;;;4970656;28;20073;-67
2022/04/11 11:04:20;;;;;;;5.65;2.17;;;6.50;99.90;;;;;;4982224;28;20065;-65
2022/04/11 11:07:08;;;;;;;17.45;2.53;;;6.50;99.90;;;;;;4970867;28;20038;-64
2022/04/11 11:09:41;;;;;;;10.80;3.03;;;6.50;99.90;;;;;;5010713;28;20055;-64
2022/04/11 11:12:21;;;;;;;10.40;2.53;;;6.70;99.90;;;;;;4980588;28;20482;-64
2022/04/11 11:14:48;;;;;;;6.45;2.22;;;6.80;99.90;;;;;;4968579;28;20043;-64
2022/04/11 11:17:15;;;;;;;9.73;2.80;;;7.00;99.90;;;;;;4973078;28;20045;-65
2022/04/11 11:20:07;;;;;;;8.10;2.40;;;7.10;99.90;;;;;;4978283;28;20529;-65
2022/04/11 11:23:13;;;;;;;7.03;2.08;;;6.90;99.90;;;;;;4975421;28;20126;-64
2022/04/11 11:25:40;;;;;;;15.45;2.33;;;7.00;99.90;;;;;;4963345;28;20102;-64
2022/04/11 11:28:11;;;;;;;10.05;3.08;;;7.10;99.90;;;;;;4971510;28;20086;-65
2022/04/11 11:30:39;;;;;;;32.63;3.70;;;7.10;99.90;;;;;;4975606;28;20152;-63
2022/04/11 11:33:15;;;;;;;9.80;2.63;;;7.10;99.90;;;;;;4971378;28;20169;-64
2022/04/11 11:36:02;;;;;;;12.10;1.85;;;7.10;99.90;;;;;;4970245;28;20133;-63
2022/04/11 11:38:31;;;;;;;15.40;3.67;;;7.20;99.90;;;;;;4973246;28;20234;-67
2022/04/11 11:41:00;;;;;;;9.80;2.72;;;7.20;99.90;;;;;;4975189;28;20061;-64
2022/04/11 11:43:29;;;;;;;8.63;2.92;;;7.30;99.90;;;;;;4974254;28;20141;-63
2022/04/11 11:45:58;;;;;;;7.20;1.77;;;7.40;99.90;;;;;;4999827;28;20141;-65
2022/04/11 11:48:31;;;;;;;8.88;1.95;;;7.20;99.90;;;;;;4977355;28;20039;-64
2022/04/11 11:51:00;;;;;;;8.82;2.42;;;7.20;99.90;;;;;;4978669;28;20345;-64
2022/04/11 11:53:49;;;;;;;16.03;3.63;;;7.10;99.90;;;;;;4976759;28;20548;-65
2022/04/11 11:56:16;;;;;;;7.32;3.17;;;6.80;99.90;;;;;;4977030;28;20117;-63
2022/04/11 11:58:44;;;;;;;8.15;2.80;;;6.80;99.90;;;;;;4971404;28;20054;-63
2022/04/11 12:01:12;;;;;;;14.23;1.80;;;6.70;99.90;;;;;;4971998;28;20509;-64
2022/04/11 12:06:31;;;;;;;5.35;1.38;;;6.70;99.90;;;;;;4982600;28;20142;-64
2022/04/11 12:09:03;;;;;;;7.05;2.28;;;6.80;99.90;;;;;;4969238;28;20728;-65
2022/04/11 12:11:31;;;;;;;10.52;1.80;;;6.90;99.90;;;;;;4982975;28;20567;-64
2022/04/11 12:14:05;;;;;;;14.25;2.80;;;7.10;99.90;;;;;;4976124;28;20049;-64
2022/04/11 12:16:54;;;;;;;10.45;2.08;;;7.30;99.90;;;;;;4973515;28;20085;-64
2022/04/11 12:19:35;;;;;;;5.22;1.60;;;7.20;99.90;;;;;;4973908;28;20070;-64
2022/04/11 12:22:11;;;;;;;2.88;1.90;;;7.20;99.90;;;;;;4984166;28;20162;-65
2022/04/11 12:24:38;;;;;;;8.13;2.78;;;7.40;99.90;;;;;;4980680;28;20061;-65
2022/04/11 12:27:06;;;;;;;5.82;1.48;;;7.60;99.90;;;;;;4985998;28;20057;-63
2022/04/11 12:29:44;;;;;;;11.52;2.42;;;7.70;99.90;;;;;;4983137;28;20902;-64
2022/04/11 12:32:13;;;;;;;15.30;2.38;;;7.80;99.90;;;;;;4978901;28;20054;-64
2022/04/11 12:34:44;;;;;;;7.22;1.70;;;7.90;99.90;;;;;;4971457;28;20046;-65
2022/04/11 12:37:13;;;;;;;6.90;1.65;;;8.00;99.90;;;;;;4983138;28;20137;-63
2022/04/11 12:39:57;;;;;;;7.13;1.75;;;8.10;99.90;;;;;;4972523;28;20247;-65
2022/04/11 12:42:26;;;;;;;6.18;0.88;;;8.20;99.90;;;;;;4980148;28;20453;-64
2022/04/11 12:45:07;;;;;;;3.22;1.50;;;8.10;99.90;;;;;;4970734;28;20129;-63
2022/04/11 12:48:04;;;;;;;6.63;1.63;;;7.90;99.90;;;;;;4985206;28;20125;-64
2022/04/11 12:50:32;;;;;;;4.05;2.78;;;7.60;99.90;;;;;;4976470;28;20042;-64
2022/04/11 12:53:00;;;;;;;8.05;1.95;;;7.90;99.90;;;;;;4980252;28;20118;-65
2022/04/11 12:55:31;;;;;;;4.70;2.50;;;8.10;99.90;;;;;;4975390;28;20453;-63
2022/04/11 12:58:04;;;;;;;9.95;1.52;;;8.00;99.90;;;;;;4982111;28;20038;-65
2022/04/11 13:00:33;;;;;;;9.25;1.50;;;7.90;99.90;;;;;;4982067;28;20388;-64
2022/04/11 13:03:01;;;;;;;7.30;1.63;;;8.10;99.90;;;;;;4980325;28;20042;-64
2022/04/11 13:05:30;;;;;;;5.97;1.92;;;8.30;99.90;;;;;;4985803;28;20457;-63
2022/04/11 13:08:01;;;;;;;9.05;2.13;;;8.40;99.90;;;;;;4981403;28;20142;-63
2022/04/11 13:10:30;;;;;;;4.35;1.75;;;8.60;99.90;;;;;;4986379;28;20112;-65
2022/04/11 13:12:58;;;;;;;5.35;1.45;;;8.80;99.90;;;;;;4979182;28;20184;-63